sensor_id;sensor_type;location;lat;lon;timestamp;P1;durP1;ratioP1;P2;durP2;ratioP2
47599;SDS011;33323;52.124;6.018;2023-09-07T00:00:59;3.00;;;2.35;;
47599;SDS011;33323;52.124;6.018;2023-09-07T00:03:31;6.43;;;2.30;;
47599;SDS011;33323;52.124;6.018;2023-09-07T00:05:58;3.20;;;2.30;;
47599;SDS011;33323;52.124;6.018;2023-09-07T00:08:25;4.28;;;2.63;;
47599;SDS011;33323;52.124;6.018;2023-09-07T00:10:52;3.10;;;2.08;;
47599;SDS011;33323;52.124;6.018;2023-09-07T00:13:19;3.63;;;2.50;;
47599;SDS011;33323;52.124;6.018;2023-09-07T00:15:46;4.78;;;2.13;;
47599;SDS011;33323;52.124;6.018;2023-09-07T00:18:13;7.82;;;2.38;;
47599;SDS011;33323;52.124;6.018;2023-09-07T00:20:44;5.00;;;2.65;;
47599;SDS011;33323;52.124;6.018;2023-09-07T00:23:11;2.88;;;1.98;;
47599;SDS011;33323;52.124;6.018;2023-09-07T00:25:38;4.90;;;2.13;;
47599;SDS011;33323;52.124;6.018;2023-09-07T00:28:05;5.57;;;2.88;;
47599;SDS011;33323;52.124;6.018;2023-09-07T00:30:32;5.13;;;2.38;;
47599;SDS011;33323;52.124;6.018;2023-09-07T00:32:59;6.68;;;2.92;;
47599;SDS011;33323;52.124;6.018;2023-09-07T00:35:26;2.88;;;2.60;;
47599;SDS011;33323;52.124;6.018;2023-09-07T00:37:53;6.80;;;2.78;;
47599;SDS011;33323;52.124;6.018;2023-09-07T00:40:21;3.72;;;2.35;;
47599;SDS011;33323;52.124;6.018;2023-09-07T00:42:49;3.08;;;1.98;;
47599;SDS011;33323;52.124;6.018;2023-09-07T00:45:16;3.47;;;2.30;;
47599;SDS011;33323;52.124;6.018;2023-09-07T00:47:44;6.75;;;2.50;;
47599;SDS011;33323;52.124;6.018;2023-09-07T00:50:12;2.55;;;2.28;;
47599;SDS011;33323;52.124;6.018;2023-09-07T00:52:43;4.38;;;2.70;;
47599;SDS011;33323;52.124;6.018;2023-09-07T00:55:10;3.42;;;2.58;;
47599;SDS011;33323;52.124;6.018;2023-09-07T00:57:39;4.15;;;2.65;;
47599;SDS011;33323;52.124;6.018;2023-09-07T01:00:09;3.95;;;3.10;;
47599;SDS011;33323;52.124;6.018;2023-09-07T01:02:37;5.93;;;2.80;;
47599;SDS011;33323;52.124;6.018;2023-09-07T01:05:04;2.30;;;1.88;;
47599;SDS011;33323;52.124;6.018;2023-09-07T01:07:37;3.83;;;2.15;;
47599;SDS011;33323;52.124;6.018;2023-09-07T01:10:16;7.03;;;2.40;;
47599;SDS011;33323;52.124;6.018;2023-09-07T01:12:46;4.38;;;2.78;;
47599;SDS011;33323;52.124;6.018;2023-09-07T01:15:13;3.20;;;2.35;;
47599;SDS011;33323;52.124;6.018;2023-09-07T01:17:40;5.63;;;2.45;;
47599;SDS011;33323;52.124;6.018;2023-09-07T01:20:08;4.22;;;3.00;;
47599;SDS011;33323;52.124;6.018;2023-09-07T01:22:38;3.72;;;2.72;;
47599;SDS011;33323;52.124;6.018;2023-09-07T01:25:07;5.63;;;2.20;;
47599;SDS011;33323;52.124;6.018;2023-09-07T01:27:35;4.05;;;2.10;;
47599;SDS011;33323;52.124;6.018;2023-09-07T01:30:02;9.05;;;2.60;;
47599;SDS011;33323;52.124;6.018;2023-09-07T01:32:31;3.97;;;2.78;;
47599;SDS011;33323;52.124;6.018;2023-09-07T01:34:58;6.05;;;2.58;;
47599;SDS011;33323;52.124;6.018;2023-09-07T01:37:28;4.80;;;2.30;;
47599;SDS011;33323;52.124;6.018;2023-09-07T01:39:55;3.13;;;2.35;;
47599;SDS011;33323;52.124;6.018;2023-09-07T01:42:22;5.07;;;2.50;;
47599;SDS011;33323;52.124;6.018;2023-09-07T01:44:49;5.03;;;2.97;;
47599;SDS011;33323;52.124;6.018;2023-09-07T01:47:16;3.85;;;2.30;;
47599;SDS011;33323;52.124;6.018;2023-09-07T01:49:43;2.78;;;1.80;;
47599;SDS011;33323;52.124;6.018;2023-09-07T01:52:11;5.00;;;2.58;;
47599;SDS011;33323;52.124;6.018;2023-09-07T01:54:38;3.80;;;2.80;;
47599;SDS011;33323;52.124;6.018;2023-09-07T01:57:05;3.67;;;2.47;;
47599;SDS011;33323;52.124;6.018;2023-09-07T01:59:32;6.40;;;2.40;;
47599;SDS011;33323;52.124;6.018;2023-09-07T02:01:59;3.40;;;2.20;;
47599;SDS011;33323;52.124;6.018;2023-09-07T02:04:26;3.58;;;2.33;;
47599;SDS011;33323;52.124;6.018;2023-09-07T02:06:53;4.93;;;2.70;;
47599;SDS011;33323;52.124;6.018;2023-09-07T02:09:20;6.90;;;2.70;;
47599;SDS011;33323;52.124;6.018;2023-09-07T02:11:47;4.22;;;2.65;;
47599;SDS011;33323;52.124;6.018;2023-09-07T02:14:15;3.13;;;2.67;;
47599;SDS011;33323;52.124;6.018;2023-09-07T02:16:42;2.22;;;1.88;;
47599;SDS011;33323;52.124;6.018;2023-09-07T02:19:09;3.50;;;2.33;;
47599;SDS011;33323;52.124;6.018;2023-09-07T02:21:36;3.78;;;2.78;;
47599;SDS011;33323;52.124;6.018;2023-09-07T02:24:03;2.30;;;1.80;;
47599;SDS011;33323;52.124;6.018;2023-09-07T02:26:31;2.88;;;1.80;;
47599;SDS011;33323;52.124;6.018;2023-09-07T02:28:58;3.38;;;2.25;;
47599;SDS011;33323;52.124;6.018;2023-09-07T02:31:25;3.92;;;2.38;;
47599;SDS011;33323;52.124;6.018;2023-09-07T02:33:53;4.32;;;2.70;;
47599;SDS011;33323;52.124;6.018;2023-09-07T02:36:20;4.68;;;2.50;;
47599;SDS011;33323;52.124;6.018;2023-09-07T02:38:47;2.15;;;1.67;;
47599;SDS011;33323;52.124;6.018;2023-09-07T02:41:14;5.60;;;2.45;;
47599;SDS011;33323;52.124;6.018;2023-09-07T02:43:41;6.18;;;2.80;;
47599;SDS011;33323;52.124;6.018;2023-09-07T02:46:08;4.57;;;2.53;;
47599;SDS011;33323;52.124;6.018;2023-09-07T02:48:36;3.13;;;2.60;;
47599;SDS011;33323;52.124;6.018;2023-09-07T02:51:04;3.92;;;2.88;;
47599;SDS011;33323;52.124;6.018;2023-09-07T02:53:31;3.33;;;2.30;;
47599;SDS011;33323;52.124;6.018;2023-09-07T02:55:58;3.00;;;2.20;;
47599;SDS011;33323;52.124;6.018;2023-09-07T02:58:28;5.15;;;2.88;;
47599;SDS011;33323;52.124;6.018;2023-09-07T03:00:56;4.75;;;3.08;;
47599;SDS011;33323;52.124;6.018;2023-09-07T03:03:24;5.55;;;2.35;;
47599;SDS011;33323;52.124;6.018;2023-09-07T03:05:53;2.72;;;1.60;;
47599;SDS011;33323;52.124;6.018;2023-09-07T03:08:21;3.15;;;1.77;;
47599;SDS011;33323;52.124;6.018;2023-09-07T03:10:48;4.53;;;2.10;;
47599;SDS011;33323;52.124;6.018;2023-09-07T03:13:15;3.45;;;2.80;;
47599;SDS011;33323;52.124;6.018;2023-09-07T03:15:42;3.17;;;2.45;;
47599;SDS011;33323;52.124;6.018;2023-09-07T03:18:11;3.97;;;2.50;;
47599;SDS011;33323;52.124;6.018;2023-09-07T03:20:40;6.05;;;2.47;;
47599;SDS011;33323;52.124;6.018;2023-09-07T03:23:07;2.72;;;2.40;;
47599;SDS011;33323;52.124;6.018;2023-09-07T03:25:35;4.63;;;1.80;;
47599;SDS011;33323;52.124;6.018;2023-09-07T03:28:02;2.42;;;1.73;;
47599;SDS011;33323;52.124;6.018;2023-09-07T03:30:32;2.65;;;2.00;;
47599;SDS011;33323;52.124;6.018;2023-09-07T03:33:00;3.70;;;2.35;;
47599;SDS011;33323;52.124;6.018;2023-09-07T03:35:28;2.38;;;1.85;;
47599;SDS011;33323;52.124;6.018;2023-09-07T03:37:55;2.95;;;2.42;;
47599;SDS011;33323;52.124;6.018;2023-09-07T03:40:22;2.92;;;1.90;;
47599;SDS011;33323;52.124;6.018;2023-09-07T03:42:50;5.40;;;3.17;;
47599;SDS011;33323;52.124;6.018;2023-09-07T03:45:17;4.10;;;2.17;;
47599;SDS011;33323;52.124;6.018;2023-09-07T03:47:44;4.25;;;2.35;;
47599;SDS011;33323;52.124;6.018;2023-09-07T03:50:14;3.53;;;2.20;;
47599;SDS011;33323;52.124;6.018;2023-09-07T03:52:41;7.82;;;2.83;;
47599;SDS011;33323;52.124;6.018;2023-09-07T03:55:08;4.25;;;2.35;;
47599;SDS011;33323;52.124;6.018;2023-09-07T03:57:36;5.05;;;2.58;;
47599;SDS011;33323;52.124;6.018;2023-09-07T04:00:04;3.28;;;2.60;;
47599;SDS011;33323;52.124;6.018;2023-09-07T04:02:45;4.50;;;2.25;;
47599;SDS011;33323;52.124;6.018;2023-09-07T04:05:13;3.25;;;1.80;;
47599;SDS011;33323;52.124;6.018;2023-09-07T04:07:40;3.30;;;2.47;;
47599;SDS011;33323;52.124;6.018;2023-09-07T04:10:08;3.55;;;2.55;;
47599;SDS011;33323;52.124;6.018;2023-09-07T04:12:36;3.47;;;2.20;;
47599;SDS011;33323;52.124;6.018;2023-09-07T04:15:03;3.20;;;2.50;;
47599;SDS011;33323;52.124;6.018;2023-09-07T04:17:31;4.45;;;2.58;;
47599;SDS011;33323;52.124;6.018;2023-09-07T04:20:07;4.00;;;2.08;;
47599;SDS011;33323;52.124;6.018;2023-09-07T04:22:40;3.85;;;1.67;;
47599;SDS011;33323;52.124;6.018;2023-09-07T04:25:08;1.45;;;1.27;;
47599;SDS011;33323;52.124;6.018;2023-09-07T04:27:35;2.65;;;1.88;;
47599;SDS011;33323;52.124;6.018;2023-09-07T04:30:04;4.07;;;2.35;;
47599;SDS011;33323;52.124;6.018;2023-09-07T04:32:53;3.90;;;3.13;;
47599;SDS011;33323;52.124;6.018;2023-09-07T04:35:20;5.30;;;2.50;;
47599;SDS011;33323;52.124;6.018;2023-09-07T04:37:52;4.15;;;1.95;;
47599;SDS011;33323;52.124;6.018;2023-09-07T04:40:21;2.50;;;1.80;;
47599;SDS011;33323;52.124;6.018;2023-09-07T04:42:49;5.88;;;2.55;;
47599;SDS011;33323;52.124;6.018;2023-09-07T04:45:16;3.40;;;2.70;;
47599;SDS011;33323;52.124;6.018;2023-09-07T04:47:44;3.42;;;2.42;;
47599;SDS011;33323;52.124;6.018;2023-09-07T04:50:11;5.65;;;2.53;;
47599;SDS011;33323;52.124;6.018;2023-09-07T04:52:40;4.28;;;3.00;;
47599;SDS011;33323;52.124;6.018;2023-09-07T04:55:07;3.60;;;2.67;;
47599;SDS011;33323;52.124;6.018;2023-09-07T04:57:35;3.88;;;2.47;;
47599;SDS011;33323;52.124;6.018;2023-09-07T05:00:05;2.00;;;1.80;;
47599;SDS011;33323;52.124;6.018;2023-09-07T05:02:35;2.58;;;2.33;;
47599;SDS011;33323;52.124;6.018;2023-09-07T05:05:07;3.60;;;2.65;;
47599;SDS011;33323;52.124;6.018;2023-09-07T05:07:35;3.97;;;2.92;;
47599;SDS011;33323;52.124;6.018;2023-09-07T05:10:02;3.58;;;2.80;;
47599;SDS011;33323;52.124;6.018;2023-09-07T05:12:30;2.40;;;2.10;;
47599;SDS011;33323;52.124;6.018;2023-09-07T05:14:57;4.90;;;2.22;;
47599;SDS011;33323;52.124;6.018;2023-09-07T05:17:26;2.92;;;2.00;;
47599;SDS011;33323;52.124;6.018;2023-09-07T05:19:53;3.28;;;2.47;;
47599;SDS011;33323;52.124;6.018;2023-09-07T05:22:20;2.88;;;2.25;;
47599;SDS011;33323;52.124;6.018;2023-09-07T05:24:48;2.80;;;1.90;;
47599;SDS011;33323;52.124;6.018;2023-09-07T05:27:16;4.82;;;2.42;;
47599;SDS011;33323;52.124;6.018;2023-09-07T05:29:43;4.65;;;2.85;;
47599;SDS011;33323;52.124;6.018;2023-09-07T05:32:10;4.70;;;2.80;;
47599;SDS011;33323;52.124;6.018;2023-09-07T05:34:38;3.60;;;2.70;;
47599;SDS011;33323;52.124;6.018;2023-09-07T05:37:06;5.45;;;2.95;;
47599;SDS011;33323;52.124;6.018;2023-09-07T05:39:34;4.22;;;1.90;;
47599;SDS011;33323;52.124;6.018;2023-09-07T05:42:01;3.35;;;2.58;;
47599;SDS011;33323;52.124;6.018;2023-09-07T05:44:28;4.32;;;2.90;;
47599;SDS011;33323;52.124;6.018;2023-09-07T05:46:55;4.05;;;2.90;;
47599;SDS011;33323;52.124;6.018;2023-09-07T05:49:25;5.10;;;2.85;;
47599;SDS011;33323;52.124;6.018;2023-09-07T05:51:52;4.40;;;2.50;;
47599;SDS011;33323;52.124;6.018;2023-09-07T05:54:19;4.45;;;2.80;;
47599;SDS011;33323;52.124;6.018;2023-09-07T05:56:46;3.42;;;2.70;;
47599;SDS011;33323;52.124;6.018;2023-09-07T05:59:13;3.55;;;2.42;;
47599;SDS011;33323;52.124;6.018;2023-09-07T06:01:41;4.85;;;2.47;;
47599;SDS011;33323;52.124;6.018;2023-09-07T06:04:08;3.40;;;2.75;;
47599;SDS011;33323;52.124;6.018;2023-09-07T06:06:35;6.20;;;3.53;;
47599;SDS011;33323;52.124;6.018;2023-09-07T06:09:03;3.40;;;2.53;;
47599;SDS011;33323;52.124;6.018;2023-09-07T06:11:30;6.72;;;3.30;;
47599;SDS011;33323;52.124;6.018;2023-09-07T06:13:59;5.10;;;2.95;;
47599;SDS011;33323;52.124;6.018;2023-09-07T06:16:26;5.18;;;2.70;;
47599;SDS011;33323;52.124;6.018;2023-09-07T06:18:54;4.03;;;3.28;;
47599;SDS011;33323;52.124;6.018;2023-09-07T06:21:21;4.30;;;2.58;;
47599;SDS011;33323;52.124;6.018;2023-09-07T06:23:48;3.58;;;2.60;;
47599;SDS011;33323;52.124;6.018;2023-09-07T06:26:16;3.33;;;2.55;;
47599;SDS011;33323;52.124;6.018;2023-09-07T06:28:44;6.25;;;2.55;;
47599;SDS011;33323;52.124;6.018;2023-09-07T06:31:11;4.30;;;2.42;;
47599;SDS011;33323;52.124;6.018;2023-09-07T06:33:42;4.25;;;2.38;;
47599;SDS011;33323;52.124;6.018;2023-09-07T06:36:09;4.38;;;2.53;;
47599;SDS011;33323;52.124;6.018;2023-09-07T06:38:36;4.03;;;2.88;;
47599;SDS011;33323;52.124;6.018;2023-09-07T06:41:03;6.07;;;3.03;;
47599;SDS011;33323;52.124;6.018;2023-09-07T06:43:31;7.32;;;3.40;;
47599;SDS011;33323;52.124;6.018;2023-09-07T06:46:06;4.53;;;3.30;;
47599;SDS011;33323;52.124;6.018;2023-09-07T06:48:36;5.63;;;3.47;;
47599;SDS011;33323;52.124;6.018;2023-09-07T06:51:03;5.10;;;2.80;;
47599;SDS011;33323;52.124;6.018;2023-09-07T06:53:33;4.05;;;3.17;;
47599;SDS011;33323;52.124;6.018;2023-09-07T06:56:20;5.75;;;3.42;;
47599;SDS011;33323;52.124;6.018;2023-09-07T06:58:47;4.07;;;3.03;;
47599;SDS011;33323;52.124;6.018;2023-09-07T07:01:15;6.65;;;3.63;;
47599;SDS011;33323;52.124;6.018;2023-09-07T07:03:42;5.07;;;4.15;;
47599;SDS011;33323;52.124;6.018;2023-09-07T07:06:10;4.28;;;3.47;;
47599;SDS011;33323;52.124;6.018;2023-09-07T07:08:38;5.32;;;4.68;;
47599;SDS011;33323;52.124;6.018;2023-09-07T07:11:05;7.10;;;5.20;;
47599;SDS011;33323;52.124;6.018;2023-09-07T07:13:33;7.20;;;5.30;;
47599;SDS011;33323;52.124;6.018;2023-09-07T07:16:01;7.65;;;6.43;;
47599;SDS011;33323;52.124;6.018;2023-09-07T07:18:31;11.52;;;6.28;;
47599;SDS011;33323;52.124;6.018;2023-09-07T07:20:58;8.93;;;6.43;;
47599;SDS011;33323;52.124;6.018;2023-09-07T07:23:25;10.00;;;6.18;;
47599;SDS011;33323;52.124;6.018;2023-09-07T07:25:53;8.60;;;5.90;;
47599;SDS011;33323;52.124;6.018;2023-09-07T07:28:22;9.38;;;6.50;;
47599;SDS011;33323;52.124;6.018;2023-09-07T07:30:49;9.02;;;6.63;;
47599;SDS011;33323;52.124;6.018;2023-09-07T07:33:19;9.60;;;7.10;;
47599;SDS011;33323;52.124;6.018;2023-09-07T07:35:47;8.52;;;6.10;;
47599;SDS011;33323;52.124;6.018;2023-09-07T07:38:14;12.82;;;7.15;;
47599;SDS011;33323;52.124;6.018;2023-09-07T07:40:42;9.48;;;7.28;;
47599;SDS011;33323;52.124;6.018;2023-09-07T07:43:09;15.73;;;7.68;;
47599;SDS011;33323;52.124;6.018;2023-09-07T07:45:37;10.20;;;6.75;;
47599;SDS011;33323;52.124;6.018;2023-09-07T07:48:06;9.35;;;6.95;;
47599;SDS011;33323;52.124;6.018;2023-09-07T07:50:37;9.45;;;6.38;;
47599;SDS011;33323;52.124;6.018;2023-09-07T07:53:11;9.88;;;7.72;;
47599;SDS011;33323;52.124;6.018;2023-09-07T07:55:39;9.90;;;6.78;;
47599;SDS011;33323;52.124;6.018;2023-09-07T07:58:10;8.80;;;7.07;;
47599;SDS011;33323;52.124;6.018;2023-09-07T08:00:39;8.75;;;6.70;;
47599;SDS011;33323;52.124;6.018;2023-09-07T08:03:18;10.48;;;6.65;;
47599;SDS011;33323;52.124;6.018;2023-09-07T08:05:46;10.70;;;7.53;;
47599;SDS011;33323;52.124;6.018;2023-09-07T08:08:14;10.40;;;7.55;;
47599;SDS011;33323;52.124;6.018;2023-09-07T08:10:42;8.38;;;6.93;;
47599;SDS011;33323;52.124;6.018;2023-09-07T08:13:12;7.57;;;6.78;;
47599;SDS011;33323;52.124;6.018;2023-09-07T08:15:41;8.52;;;6.28;;
47599;SDS011;33323;52.124;6.018;2023-09-07T08:18:10;9.32;;;6.57;;
47599;SDS011;33323;52.124;6.018;2023-09-07T08:20:37;8.63;;;7.38;;
47599;SDS011;33323;52.124;6.018;2023-09-07T08:23:07;8.80;;;6.82;;
47599;SDS011;33323;52.124;6.018;2023-09-07T08:25:37;11.55;;;6.20;;
47599;SDS011;33323;52.124;6.018;2023-09-07T08:28:06;8.70;;;5.78;;
47599;SDS011;33323;52.124;6.018;2023-09-07T08:30:33;8.32;;;5.63;;
47599;SDS011;33323;52.124;6.018;2023-09-07T08:33:00;6.75;;;5.78;;
47599;SDS011;33323;52.124;6.018;2023-09-07T08:35:29;13.35;;;6.35;;
47599;SDS011;33323;52.124;6.018;2023-09-07T08:37:57;11.10;;;6.07;;
47599;SDS011;33323;52.124;6.018;2023-09-07T08:40:26;7.95;;;6.03;;
47599;SDS011;33323;52.124;6.018;2023-09-07T08:42:56;8.65;;;5.60;;
47599;SDS011;33323;52.124;6.018;2023-09-07T08:45:23;9.07;;;5.55;;
47599;SDS011;33323;52.124;6.018;2023-09-07T08:47:52;11.18;;;6.40;;
47599;SDS011;33323;52.124;6.018;2023-09-07T08:50:21;7.22;;;6.03;;
47599;SDS011;33323;52.124;6.018;2023-09-07T08:52:51;9.25;;;6.15;;
47599;SDS011;33323;52.124;6.018;2023-09-07T08:55:19;7.22;;;5.68;;
47599;SDS011;33323;52.124;6.018;2023-09-07T08:57:47;7.68;;;6.05;;
47599;SDS011;33323;52.124;6.018;2023-09-07T09:00:14;6.93;;;5.28;;
47599;SDS011;33323;52.124;6.018;2023-09-07T09:02:45;8.05;;;5.05;;
47599;SDS011;33323;52.124;6.018;2023-09-07T09:05:16;7.50;;;5.68;;
47599;SDS011;33323;52.124;6.018;2023-09-07T09:07:46;7.03;;;5.63;;
47599;SDS011;33323;52.124;6.018;2023-09-07T09:10:13;7.13;;;4.88;;
47599;SDS011;33323;52.124;6.018;2023-09-07T09:12:46;8.02;;;5.53;;
47599;SDS011;33323;52.124;6.018;2023-09-07T09:15:13;6.07;;;4.75;;
47599;SDS011;33323;52.124;6.018;2023-09-07T09:17:41;8.82;;;4.60;;
47599;SDS011;33323;52.124;6.018;2023-09-07T09:20:24;5.75;;;4.22;;
47599;SDS011;33323;52.124;6.018;2023-09-07T09:22:54;6.03;;;4.05;;
47599;SDS011;33323;52.124;6.018;2023-09-07T09:25:22;5.30;;;3.83;;
47599;SDS011;33323;52.124;6.018;2023-09-07T09:27:49;6.00;;;3.90;;
47599;SDS011;33323;52.124;6.018;2023-09-07T09:30:17;5.22;;;3.88;;
47599;SDS011;33323;52.124;6.018;2023-09-07T09:32:44;6.65;;;4.88;;
47599;SDS011;33323;52.124;6.018;2023-09-07T09:35:11;5.63;;;3.78;;
47599;SDS011;33323;52.124;6.018;2023-09-07T09:37:48;7.07;;;4.03;;
47599;SDS011;33323;52.124;6.018;2023-09-07T09:40:15;6.63;;;3.90;;
47599;SDS011;33323;52.124;6.018;2023-09-07T09:42:43;6.78;;;3.70;;
47599;SDS011;33323;52.124;6.018;2023-09-07T09:45:11;4.10;;;2.95;;
47599;SDS011;33323;52.124;6.018;2023-09-07T09:47:40;4.90;;;3.20;;
47599;SDS011;33323;52.124;6.018;2023-09-07T09:50:09;4.15;;;2.72;;
47599;SDS011;33323;52.124;6.018;2023-09-07T09:52:38;3.40;;;3.03;;
47599;SDS011;33323;52.124;6.018;2023-09-07T09:55:06;4.78;;;2.90;;
47599;SDS011;33323;52.124;6.018;2023-09-07T09:57:35;8.90;;;3.47;;
47599;SDS011;33323;52.124;6.018;2023-09-07T10:00:03;4.70;;;2.85;;
47599;SDS011;33323;52.124;6.018;2023-09-07T10:03:05;4.90;;;2.83;;
47599;SDS011;33323;52.124;6.018;2023-09-07T10:05:39;3.80;;;3.13;;
47599;SDS011;33323;52.124;6.018;2023-09-07T10:08:11;5.85;;;2.75;;
47599;SDS011;33323;52.124;6.018;2023-09-07T10:10:44;3.88;;;2.40;;
47599;SDS011;33323;52.124;6.018;2023-09-07T10:13:14;4.68;;;2.90;;
47599;SDS011;33323;52.124;6.018;2023-09-07T10:15:43;3.88;;;2.97;;
47599;SDS011;33323;52.124;6.018;2023-09-07T10:18:12;2.97;;;2.60;;
47599;SDS011;33323;52.124;6.018;2023-09-07T10:23:35;9.23;;;3.90;;
47599;SDS011;33323;52.124;6.018;2023-09-07T10:26:15;6.75;;;2.78;;
47599;SDS011;33323;52.124;6.018;2023-09-07T10:28:44;5.85;;;3.42;;
47599;SDS011;33323;52.124;6.018;2023-09-07T10:31:17;4.80;;;3.03;;
47599;SDS011;33323;52.124;6.018;2023-09-07T10:33:46;4.57;;;3.17;;
47599;SDS011;33323;52.124;6.018;2023-09-07T10:36:21;5.45;;;3.20;;
47599;SDS011;33323;52.124;6.018;2023-09-07T10:38:51;6.43;;;3.10;;
47599;SDS011;33323;52.124;6.018;2023-09-07T10:41:21;5.93;;;2.88;;
47599;SDS011;33323;52.124;6.018;2023-09-07T10:43:55;3.00;;;2.70;;
47599;SDS011;33323;52.124;6.018;2023-09-07T10:46:23;5.03;;;2.83;;
47599;SDS011;33323;52.124;6.018;2023-09-07T10:48:52;6.00;;;2.97;;
47599;SDS011;33323;52.124;6.018;2023-09-07T10:51:20;6.05;;;2.70;;
47599;SDS011;33323;52.124;6.018;2023-09-07T10:53:48;5.13;;;2.65;;
47599;SDS011;33323;52.124;6.018;2023-09-07T10:56:16;4.05;;;2.13;;
47599;SDS011;33323;52.124;6.018;2023-09-07T10:58:43;5.65;;;2.88;;
47599;SDS011;33323;52.124;6.018;2023-09-07T11:01:10;4.03;;;2.42;;
47599;SDS011;33323;52.124;6.018;2023-09-07T11:03:42;4.47;;;3.33;;
47599;SDS011;33323;52.124;6.018;2023-09-07T11:06:11;12.05;;;3.38;;
47599;SDS011;33323;52.124;6.018;2023-09-07T11:08:44;4.05;;;2.58;;
47599;SDS011;33323;52.124;6.018;2023-09-07T11:11:13;5.38;;;2.78;;
47599;SDS011;33323;52.124;6.018;2023-09-07T11:13:40;3.67;;;2.50;;
47599;SDS011;33323;52.124;6.018;2023-09-07T11:16:08;4.00;;;2.50;;
47599;SDS011;33323;52.124;6.018;2023-09-07T11:18:36;3.72;;;2.85;;
47599;SDS011;33323;52.124;6.018;2023-09-07T11:21:03;3.35;;;2.88;;
47599;SDS011;33323;52.124;6.018;2023-09-07T11:23:31;7.07;;;2.80;;
47599;SDS011;33323;52.124;6.018;2023-09-07T11:26:05;5.55;;;2.72;;
47599;SDS011;33323;52.124;6.018;2023-09-07T11:28:33;4.75;;;2.60;;
47599;SDS011;33323;52.124;6.018;2023-09-07T11:31:00;6.38;;;3.17;;
47599;SDS011;33323;52.124;6.018;2023-09-07T11:33:31;3.78;;;2.85;;
47599;SDS011;33323;52.124;6.018;2023-09-07T11:36:02;3.85;;;1.92;;
47599;SDS011;33323;52.124;6.018;2023-09-07T11:38:34;5.13;;;2.40;;
47599;SDS011;33323;52.124;6.018;2023-09-07T11:41:04;4.50;;;2.87;;
47599;SDS011;33323;52.124;6.018;2023-09-07T11:43:31;4.00;;;2.42;;
47599;SDS011;33323;52.124;6.018;2023-09-07T11:46:00;11.73;;;2.83;;
47599;SDS011;33323;52.124;6.018;2023-09-07T11:48:28;4.38;;;2.80;;
47599;SDS011;33323;52.124;6.018;2023-09-07T11:50:55;9.35;;;2.88;;
47599;SDS011;33323;52.124;6.018;2023-09-07T11:53:22;2.22;;;1.88;;
47599;SDS011;33323;52.124;6.018;2023-09-07T11:55:49;4.70;;;2.20;;
47599;SDS011;33323;52.124;6.018;2023-09-07T11:58:16;3.70;;;2.38;;
47599;SDS011;33323;52.124;6.018;2023-09-07T12:00:44;5.22;;;2.45;;
47599;SDS011;33323;52.124;6.018;2023-09-07T12:03:11;3.38;;;2.45;;
47599;SDS011;33323;52.124;6.018;2023-09-07T12:05:38;3.58;;;2.50;;
47599;SDS011;33323;52.124;6.018;2023-09-07T12:08:08;3.67;;;2.45;;
47599;SDS011;33323;52.124;6.018;2023-09-07T12:10:35;5.15;;;2.42;;
47599;SDS011;33323;52.124;6.018;2023-09-07T12:13:02;4.15;;;2.58;;
47599;SDS011;33323;52.124;6.018;2023-09-07T12:15:29;6.10;;;3.30;;
47599;SDS011;33323;52.124;6.018;2023-09-07T12:17:56;6.53;;;2.10;;
47599;SDS011;33323;52.124;6.018;2023-09-07T12:20:24;4.18;;;3.35;;
47599;SDS011;33323;52.124;6.018;2023-09-07T12:22:51;7.32;;;2.95;;
47599;SDS011;33323;52.124;6.018;2023-09-07T12:25:18;3.30;;;2.38;;
47599;SDS011;33323;52.124;6.018;2023-09-07T12:27:45;3.65;;;3.20;;
47599;SDS011;33323;52.124;6.018;2023-09-07T12:30:20;4.00;;;2.95;;
47599;SDS011;33323;52.124;6.018;2023-09-07T12:32:50;6.05;;;2.60;;
47599;SDS011;33323;52.124;6.018;2023-09-07T12:35:18;5.47;;;2.55;;
47599;SDS011;33323;52.124;6.018;2023-09-07T12:37:46;3.20;;;2.47;;
47599;SDS011;33323;52.124;6.018;2023-09-07T12:40:14;3.85;;;2.65;;
47599;SDS011;33323;52.124;6.018;2023-09-07T12:42:42;4.65;;;2.30;;
47599;SDS011;33323;52.124;6.018;2023-09-07T12:45:11;6.93;;;2.25;;
47599;SDS011;33323;52.124;6.018;2023-09-07T12:47:40;5.32;;;2.65;;
47599;SDS011;33323;52.124;6.018;2023-09-07T12:50:08;5.93;;;2.50;;
47599;SDS011;33323;52.124;6.018;2023-09-07T12:52:35;3.00;;;2.70;;
47599;SDS011;33323;52.124;6.018;2023-09-07T12:55:04;3.53;;;2.90;;
47599;SDS011;33323;52.124;6.018;2023-09-07T12:57:33;4.55;;;2.78;;
47599;SDS011;33323;52.124;6.018;2023-09-07T13:00:03;7.25;;;2.30;;
47599;SDS011;33323;52.124;6.018;2023-09-07T13:02:32;6.72;;;2.13;;
47599;SDS011;33323;52.124;6.018;2023-09-07T13:04:59;4.85;;;2.05;;
47599;SDS011;33323;52.124;6.018;2023-09-07T13:07:26;7.72;;;2.30;;
47599;SDS011;33323;52.124;6.018;2023-09-07T13:09:54;3.25;;;2.72;;
47599;SDS011;33323;52.124;6.018;2023-09-07T13:12:21;4.05;;;2.75;;
47599;SDS011;33323;52.124;6.018;2023-09-07T13:14:48;7.20;;;2.28;;
47599;SDS011;33323;52.124;6.018;2023-09-07T13:17:16;3.83;;;2.00;;
47599;SDS011;33323;52.124;6.018;2023-09-07T13:19:43;4.28;;;2.20;;
47599;SDS011;33323;52.124;6.018;2023-09-07T13:22:10;4.57;;;2.30;;
47599;SDS011;33323;52.124;6.018;2023-09-07T13:24:37;9.63;;;3.42;;
47599;SDS011;33323;52.124;6.018;2023-09-07T13:27:05;3.78;;;2.42;;
47599;SDS011;33323;52.124;6.018;2023-09-07T13:29:32;3.78;;;2.33;;
47599;SDS011;33323;52.124;6.018;2023-09-07T13:32:00;8.02;;;2.45;;
47599;SDS011;33323;52.124;6.018;2023-09-07T13:34:27;4.00;;;2.60;;
47599;SDS011;33323;52.124;6.018;2023-09-07T13:36:54;3.33;;;2.33;;
47599;SDS011;33323;52.124;6.018;2023-09-07T13:39:22;5.28;;;2.25;;
47599;SDS011;33323;52.124;6.018;2023-09-07T13:41:50;4.95;;;2.05;;
47599;SDS011;33323;52.124;6.018;2023-09-07T13:44:17;4.85;;;2.38;;
47599;SDS011;33323;52.124;6.018;2023-09-07T13:46:44;3.60;;;2.33;;
47599;SDS011;33323;52.124;6.018;2023-09-07T13:49:12;2.60;;;2.28;;
47599;SDS011;33323;52.124;6.018;2023-09-07T13:51:40;3.38;;;2.10;;
47599;SDS011;33323;52.124;6.018;2023-09-07T13:54:08;3.88;;;2.20;;
47599;SDS011;33323;52.124;6.018;2023-09-07T13:56:36;5.82;;;2.28;;
47599;SDS011;33323;52.124;6.018;2023-09-07T13:59:04;5.30;;;2.50;;
47599;SDS011;33323;52.124;6.018;2023-09-07T14:01:31;2.67;;;2.40;;
47599;SDS011;33323;52.124;6.018;2023-09-07T14:03:59;3.60;;;2.38;;
47599;SDS011;33323;52.124;6.018;2023-09-07T14:06:27;4.85;;;2.38;;
47599;SDS011;33323;52.124;6.018;2023-09-07T14:08:54;4.10;;;2.15;;
47599;SDS011;33323;52.124;6.018;2023-09-07T14:11:22;5.10;;;2.20;;
47599;SDS011;33323;52.124;6.018;2023-09-07T14:13:50;5.93;;;2.70;;
47599;SDS011;33323;52.124;6.018;2023-09-07T14:16:18;4.38;;;2.20;;
47599;SDS011;33323;52.124;6.018;2023-09-07T14:18:47;4.13;;;2.40;;
47599;SDS011;33323;52.124;6.018;2023-09-07T14:21:15;5.20;;;2.60;;
47599;SDS011;33323;52.124;6.018;2023-09-07T14:23:43;3.15;;;2.30;;
47599;SDS011;33323;52.124;6.018;2023-09-07T14:26:12;7.82;;;2.35;;
47599;SDS011;33323;52.124;6.018;2023-09-07T14:28:42;3.15;;;2.50;;
47599;SDS011;33323;52.124;6.018;2023-09-07T14:31:10;4.90;;;2.08;;
47599;SDS011;33323;52.124;6.018;2023-09-07T14:33:38;3.30;;;2.53;;
47599;SDS011;33323;52.124;6.018;2023-09-07T14:36:09;3.60;;;2.30;;
47599;SDS011;33323;52.124;6.018;2023-09-07T14:38:36;4.70;;;2.42;;
47599;SDS011;33323;52.124;6.018;2023-09-07T14:43:46;5.45;;;2.13;;
47599;SDS011;33323;52.124;6.018;2023-09-07T14:46:15;6.78;;;2.00;;
47599;SDS011;33323;52.124;6.018;2023-09-07T14:48:43;3.50;;;2.00;;
47599;SDS011;33323;52.124;6.018;2023-09-07T14:51:14;2.63;;;2.42;;
47599;SDS011;33323;52.124;6.018;2023-09-07T14:53:42;5.32;;;2.67;;
47599;SDS011;33323;52.124;6.018;2023-09-07T14:56:11;3.25;;;2.72;;
47599;SDS011;33323;52.124;6.018;2023-09-07T14:58:39;4.65;;;2.63;;
47599;SDS011;33323;52.124;6.018;2023-09-07T15:01:06;4.97;;;2.58;;